createdAt,value
2022-11-24T00:00:54.940Z,17.05
2022-11-24T00:03:22.993Z,17.05
2022-11-24T00:05:50.982Z,19.80
2022-11-24T00:08:18.944Z,18.60
2022-11-24T00:10:48.383Z,16.27
2022-11-24T00:13:16.277Z,17.52
2022-11-24T00:15:44.185Z,17.08
2022-11-24T00:18:11.867Z,18.58
2022-11-24T00:23:08.023Z,17.92
2022-11-24T00:25:35.870Z,17.38
2022-11-24T00:28:05.098Z,19.08
2022-11-24T00:30:34.984Z,17.40
2022-11-24T00:33:02.816Z,21.75
2022-11-24T00:35:30.577Z,16.67
2022-11-24T00:37:58.791Z,21.55
2022-11-24T00:42:57.442Z,21.17
2022-11-24T00:47:54.218Z,25.23
2022-11-24T00:50:22.552Z,27.00
2022-11-24T00:52:50.217Z,25.55
2022-11-24T00:57:45.462Z,28.88
2022-11-24T01:02:41.730Z,32.10
2022-11-24T01:07:38.561Z,28.42
2022-11-24T01:10:06.981Z,29.83
2022-11-24T01:12:35.752Z,26.45
2022-11-24T01:15:03.538Z,27.75
2022-11-24T01:17:31.292Z,27.75
2022-11-24T01:22:27.528Z,25.45
2022-11-24T01:24:56.653Z,25.13
2022-11-24T01:27:24.331Z,25.75
2022-11-24T01:32:19.644Z,22.90
2022-11-24T01:37:14.839Z,24.15
2022-11-24T01:42:11.402Z,25.35
2022-11-24T01:44:39.289Z,26.70
2022-11-24T01:47:09.368Z,24.33
2022-11-24T01:49:39.426Z,24.92
2022-11-24T01:52:09.662Z,23.98
2022-11-24T01:54:39.060Z,23.83
2022-11-24T01:57:09.713Z,24.10
2022-11-24T01:59:38.853Z,25.45
2022-11-24T02:02:06.732Z,27.30
2022-11-24T02:04:35.175Z,26.50
2022-11-24T02:07:04.585Z,27.38
2022-11-24T02:09:35.409Z,24.52
2022-11-24T02:12:03.611Z,26.83
2022-11-24T02:14:31.606Z,29.08
2022-11-24T02:17:00.930Z,27.75
2022-11-24T02:19:33.094Z,25.98
2022-11-24T02:22:01.614Z,27.25
2022-11-24T02:24:33.962Z,27.02
2022-11-24T02:27:03.587Z,28.40
2022-11-24T02:29:31.340Z,28.65
2022-11-24T02:32:00.453Z,27.75
2022-11-24T02:34:28.108Z,30.30
2022-11-24T02:39:23.357Z,30.08
2022-11-24T02:44:21.178Z,30.98
2022-11-24T02:46:48.856Z,25.63
2022-11-24T02:51:44.522Z,30.70
2022-11-24T02:56:39.971Z,39.10
2022-11-24T03:01:36.575Z,38.47
2022-11-24T03:04:04.433Z,44.20
2022-11-24T03:06:32.126Z,42.25
2022-11-24T03:11:27.366Z,52.58
2022-11-24T03:16:22.618Z,52.25
2022-11-24T03:18:53.051Z,50.83
2022-11-24T03:21:21.009Z,61.55
2022-11-24T03:23:48.714Z,61.50
2022-11-24T03:28:44.101Z,65.13
2022-11-24T03:31:12.476Z,74.22
2022-11-24T03:33:40.352Z,66.10
2022-11-24T03:36:10.117Z,60.75
2022-11-24T03:38:37.882Z,58.72
2022-11-24T03:41:05.706Z,57.83
2022-11-24T03:43:33.377Z,55.47
2022-11-24T03:48:28.636Z,60.47
2022-11-24T03:53:27.123Z,56.45
2022-11-24T03:55:54.888Z,57.47
2022-11-24T04:00:51.074Z,64.22
2022-11-24T04:03:19.196Z,62.67
2022-11-24T04:05:46.925Z,64.28
2022-11-24T04:10:44.035Z,64.03
2022-11-24T04:13:12.212Z,71.10
2022-11-24T04:15:41.214Z,62.88
2022-11-24T04:18:09.645Z,66.90
2022-11-24T04:20:37.795Z,66.15
2022-11-24T04:23:06.013Z,68.35
2022-11-24T04:25:33.963Z,70.75
2022-11-24T04:28:03.042Z,70.10
2022-11-24T04:30:30.852Z,72.47
2022-11-24T04:32:59.021Z,74.60
2022-11-24T04:35:26.854Z,73.38
2022-11-24T04:37:54.678Z,76.15
2022-11-24T04:40:22.507Z,74.13
2022-11-24T04:42:54.764Z,72.30
2022-11-24T04:45:24.285Z,73.88
2022-11-24T04:47:52.043Z,78.15
2022-11-24T04:52:47.356Z,86.65
2022-11-24T04:55:15.874Z,82.72
2022-11-24T04:57:43.611Z,86.07
2022-11-24T05:02:40.652Z,86.28
2022-11-24T05:05:08.752Z,81.15
2022-11-24T05:07:36.516Z,83.60
2022-11-24T05:10:21.609Z,85.13
2022-11-24T05:12:55.073Z,89.45
2022-11-24T05:15:22.786Z,83.60
2022-11-24T05:20:19.724Z,88.10
2022-11-24T05:22:47.783Z,84.15
2022-11-24T05:25:17.098Z,87.25
2022-11-24T05:27:44.940Z,89.03
2022-11-24T05:30:13.125Z,91.43
2022-11-24T05:32:40.801Z,96.70
2022-11-24T05:40:07.677Z,94.35
2022-11-24T05:42:47.758Z,90.10
2022-11-24T05:45:17.443Z,88.15
2022-11-24T05:47:45.186Z,89.88
2022-11-24T05:52:40.604Z,77.63
2022-11-24T05:55:10.759Z,79.72
2022-11-24T05:57:38.454Z,82.68
2022-11-24T06:02:40.361Z,75.82
2022-11-24T06:05:09.209Z,79.57
2022-11-24T06:07:37.245Z,87.07
2022-11-24T06:10:05.634Z,78.10
2022-11-24T06:12:34.765Z,69.55
2022-11-24T06:15:02.445Z,73.60
2022-11-24T06:19:57.763Z,82.68
2022-11-24T06:24:52.969Z,67.63
2022-11-24T06:29:49.611Z,73.05
2022-11-24T06:32:17.559Z,74.90
2022-11-24T06:34:45.308Z,74.28
2022-11-24T06:37:13.041Z,74.70
2022-11-24T06:42:08.293Z,68.22
2022-11-24T06:47:05.411Z,74.47
2022-11-24T06:49:33.439Z,72.00
2022-11-24T06:52:01.140Z,78.43
2022-11-24T06:56:57.213Z,72.63
2022-11-24T06:59:25.083Z,70.53
2022-11-24T07:01:52.877Z,64.50
2022-11-24T07:06:49.656Z,71.60
2022-11-24T07:09:17.412Z,68.55
2022-11-24T07:14:12.786Z,74.28
2022-11-24T07:16:40.753Z,64.72
2022-11-24T07:19:10.286Z,64.43
2022-11-24T07:21:38.120Z,71.35
2022-11-24T07:26:37.391Z,68.00
2022-11-24T07:29:05.867Z,62.58
2022-11-24T07:31:33.736Z,68.03
2022-11-24T07:34:01.551Z,65.38
2022-11-24T07:38:56.881Z,64.70
2022-11-24T07:43:53.510Z,59.97
2022-11-24T07:46:21.689Z,70.57
2022-11-24T07:48:49.596Z,65.95
2022-11-24T07:51:17.462Z,62.85
2022-11-24T07:53:45.960Z,64.63
2022-11-24T07:56:13.769Z,68.18
2022-11-24T07:58:41.598Z,71.70
2022-11-24T08:01:14.821Z,72.70
2022-11-24T08:03:42.993Z,67.97
2022-11-24T08:06:30.544Z,61.88
2022-11-24T08:08:59.140Z,76.83
2022-11-24T08:11:27.076Z,67.30
2022-11-24T08:13:54.785Z,60.28
2022-11-24T08:18:52.096Z,61.47
2022-11-24T08:21:19.931Z,74.90
2022-11-24T08:23:47.701Z,72.68
2022-11-24T08:28:44.216Z,63.40
2022-11-24T08:31:13.127Z,67.80
2022-11-24T08:33:41.211Z,61.13
2022-11-24T08:36:12.090Z,72.97
2022-11-24T08:38:40.198Z,65.88
2022-11-24T08:41:09.111Z,71.78
2022-11-24T08:43:37.057Z,70.47
2022-11-24T08:46:06.399Z,72.38
2022-11-24T08:48:34.553Z,68.22
2022-11-24T08:51:07.818Z,84.45
2022-11-24T08:53:36.951Z,72.97
2022-11-24T08:56:05.378Z,80.22
2022-11-24T08:58:33.591Z,80.22
2022-11-24T09:01:05.336Z,74.10
2022-11-24T09:03:33.232Z,75.93
2022-11-24T09:06:00.992Z,81.57
2022-11-24T09:11:01.586Z,78.90
2022-11-24T09:13:29.556Z,74.30
2022-11-24T09:15:58.589Z,81.75
2022-11-24T09:18:30.266Z,74.05
2022-11-24T09:21:06.694Z,69.80
2022-11-24T09:23:34.457Z,68.28
2022-11-24T09:28:31.103Z,67.32
2022-11-24T09:31:01.298Z,66.63
2022-11-24T09:33:29.310Z,68.30
2022-11-24T09:35:57.277Z,61.22
2022-11-24T09:38:25.073Z,68.72
2022-11-24T09:43:25.934Z,61.38
2022-11-24T09:46:05.663Z,64.68
2022-11-24T09:48:36.402Z,63.92
2022-11-24T09:51:05.350Z,68.47
2022-11-24T09:53:35.497Z,65.35
2022-11-24T09:56:06.309Z,69.68
2022-11-24T09:58:41.340Z,62.20
2022-11-24T10:01:13.918Z,61.03
2022-11-24T10:03:43.452Z,71.57
2022-11-24T10:06:18.914Z,62.42
2022-11-24T10:09:00.713Z,58.95
2022-11-24T10:11:33.019Z,58.83
2022-11-24T10:14:25.910Z,60.42
2022-11-24T10:16:58.341Z,63.40
2022-11-24T10:19:36.984Z,61.35
2022-11-24T10:22:14.160Z,66.43
2022-11-24T10:24:51.437Z,59.85
2022-11-24T10:27:19.762Z,58.42
2022-11-24T10:29:50.485Z,53.90
2022-11-24T10:32:21.168Z,58.97
2022-11-24T10:34:50.877Z,56.85
2022-11-24T10:37:22.724Z,54.33
2022-11-24T10:39:59.876Z,53.65
2022-11-24T10:42:29.528Z,58.90
2022-11-24T10:45:01.294Z,56.78
2022-11-24T10:47:31.169Z,59.92
2022-11-24T10:50:00.685Z,59.25
2022-11-24T10:52:29.706Z,57.75
2022-11-24T10:54:58.723Z,58.50
2022-11-24T10:57:30.640Z,57.30
2022-11-24T10:59:58.537Z,56.72
2022-11-24T11:02:32.312Z,60.03
2022-11-24T11:05:00.268Z,59.70
2022-11-24T11:07:28.068Z,56.92
2022-11-24T11:10:10.853Z,57.90
2022-11-24T11:12:45.987Z,58.58
2022-11-24T11:15:24.728Z,54.47
2022-11-24T11:17:57.438Z,52.00
2022-11-24T11:20:28.370Z,54.00
2022-11-24T11:22:57.488Z,51.55
2022-11-24T11:25:27.100Z,51.00
2022-11-24T11:28:16.521Z,52.05
2022-11-24T11:34:04.352Z,46.53
2022-11-24T11:36:34.139Z,50.65
2022-11-24T11:39:03.711Z,42.75
2022-11-24T11:41:32.817Z,42.50
2022-11-24T11:44:14.691Z,42.05
2022-11-24T11:46:42.900Z,41.53
2022-11-24T11:49:12.465Z,42.65
2022-11-24T11:51:45.768Z,44.05
2022-11-24T11:54:19.627Z,42.95
2022-11-24T11:56:49.263Z,38.33
2022-11-24T11:59:29.354Z,41.28
2022-11-24T12:02:11.588Z,40.20
2022-11-24T12:04:47.179Z,37.67
2022-11-24T12:07:27.709Z,40.65
2022-11-24T12:10:01.644Z,45.28
2022-11-24T12:12:46.994Z,40.47
2022-11-24T12:15:20.873Z,36.00
2022-11-24T12:17:53.653Z,40.17
2022-11-24T12:20:32.677Z,37.53
2022-11-24T12:23:03.785Z,32.72
2022-11-24T12:25:34.315Z,31.80
2022-11-24T12:28:06.972Z,32.33
2022-11-24T12:30:39.681Z,29.23
2022-11-24T12:33:13.725Z,34.00
2022-11-24T12:35:44.198Z,31.00
2022-11-24T12:38:26.967Z,35.45
2022-11-24T12:41:39.716Z,30.35
2022-11-24T12:43:53.950Z,28.98
2022-11-24T12:46:24.968Z,34.22
2022-11-24T12:48:58.156Z,32.50
2022-11-24T12:51:29.361Z,29.88
2022-11-24T12:53:58.831Z,29.30
2022-11-24T12:56:30.477Z,28.67
2022-11-24T12:59:04.249Z,34.08
2022-11-24T13:01:35.013Z,30.52
2022-11-24T13:04:07.022Z,28.92
2022-11-24T13:06:43.074Z,31.70
2022-11-24T13:09:14.303Z,26.80
2022-11-24T13:11:43.275Z,25.05
2022-11-24T13:14:16.218Z,27.80
2022-11-24T13:17:21.172Z,28.13
2022-11-24T13:19:38.640Z,30.55
2022-11-24T13:22:17.851Z,32.38
2022-11-24T13:24:45.987Z,31.67
2022-11-24T13:27:29.872Z,33.03
2022-11-24T13:29:57.635Z,31.08
2022-11-24T13:34:56.193Z,29.02
2022-11-24T13:37:38.847Z,27.38
2022-11-24T13:40:30.807Z,31.58
2022-11-24T13:43:13.423Z,34.38
2022-11-24T13:45:51.738Z,29.75
2022-11-24T13:51:05.879Z,28.10
2022-11-24T13:53:35.849Z,34.55
2022-11-24T13:56:09.621Z,26.10
2022-11-24T13:58:38.425Z,24.45
2022-11-24T14:01:13.524Z,29.95
2022-11-24T14:04:07.153Z,30.77
2022-11-24T14:06:34.323Z,34.35
2022-11-24T14:09:02.782Z,33.38
2022-11-24T14:11:31.870Z,26.60
2022-11-24T14:13:59.619Z,32.25
2022-11-24T14:18:54.955Z,30.27
2022-11-24T14:21:26.873Z,33.40
2022-11-24T14:23:56.150Z,27.67
2022-11-24T14:26:24.720Z,31.55
2022-11-24T14:28:54.850Z,29.67
2022-11-24T14:31:24.386Z,29.65
2022-11-24T14:33:52.698Z,33.67
2022-11-24T14:36:20.469Z,30.58
2022-11-24T14:41:23.054Z,32.30
2022-11-24T14:43:51.342Z,39.22
2022-11-24T14:46:20.925Z,28.05
2022-11-24T14:48:49.634Z,37.15
2022-11-24T14:51:20.886Z,33.58
2022-11-24T14:53:50.265Z,30.95
2022-11-24T14:56:25.226Z,30.50
2022-11-24T14:58:53.303Z,31.42
2022-11-24T15:01:24.452Z,29.92
2022-11-24T15:04:13.065Z,31.40
2022-11-24T15:06:46.962Z,45.72
2022-11-24T15:09:26.702Z,37.58
2022-11-24T15:11:55.013Z,32.58
2022-11-24T15:14:40.710Z,35.60
2022-11-24T15:17:16.913Z,30.45
2022-11-24T15:19:46.133Z,33.45
2022-11-24T15:22:44.001Z,32.00
2022-11-24T15:25:39.335Z,35.42
2022-11-24T15:28:07.138Z,33.75
2022-11-24T15:33:03.892Z,34.67
2022-11-24T15:35:32.522Z,34.17
2022-11-24T15:38:00.242Z,34.05
2022-11-24T15:42:56.188Z,36.30
2022-11-24T15:45:25.148Z,31.67
2022-11-24T15:47:53.134Z,37.45
2022-11-24T15:50:22.771Z,47.08
2022-11-24T15:52:50.612Z,34.83
2022-11-24T15:55:19.349Z,33.15
2022-11-24T15:57:47.164Z,31.85
2022-11-24T16:00:16.067Z,36.75
2022-11-24T16:02:43.873Z,34.08
2022-11-24T16:05:12.363Z,36.78
2022-11-24T16:07:41.884Z,38.75
2022-11-24T16:10:16.118Z,36.30
2022-11-24T16:12:44.146Z,33.95
2022-11-24T16:15:11.980Z,36.85
2022-11-24T16:17:39.708Z,39.92
2022-11-24T16:22:35.545Z,38.78
2022-11-24T16:25:05.413Z,35.80
2022-11-24T16:27:33.248Z,40.75
2022-11-24T16:32:30.428Z,37.58
2022-11-24T16:34:58.230Z,37.17
2022-11-24T16:37:26.018Z,42.40
2022-11-24T16:39:57.588Z,39.13
2022-11-24T16:42:26.737Z,40.22
2022-11-24T16:44:55.314Z,39.78
2022-11-24T16:49:52.710Z,41.65
2022-11-24T16:52:20.583Z,36.70
2022-11-24T16:54:48.372Z,37.40
2022-11-24T16:59:45.960Z,36.17
2022-11-24T17:02:14.432Z,41.47
2022-11-24T17:04:42.377Z,38.53
2022-11-24T17:07:10.257Z,38.67
2022-11-24T17:09:40.844Z,36.70
2022-11-24T17:12:08.953Z,41.00
2022-11-24T17:14:37.095Z,43.90
2022-11-24T17:17:06.389Z,38.17
2022-11-24T17:19:34.171Z,39.00
2022-11-24T17:22:02.177Z,35.08
2022-11-24T17:24:29.910Z,40.55
2022-11-24T17:29:25.994Z,37.67
2022-11-24T17:31:54.358Z,39.85
2022-11-24T17:34:25.982Z,41.92
2022-11-24T17:36:53.712Z,36.88
2022-11-24T17:41:53.273Z,36.75
2022-11-24T17:46:51.402Z,35.85
2022-11-24T17:49:23.437Z,39.65
2022-11-24T17:51:52.724Z,35.75
2022-11-24T17:57:08.392Z,37.90
2022-11-24T18:02:04.263Z,34.95
2022-11-24T18:04:32.093Z,33.72
2022-11-24T18:07:01.297Z,41.30
2022-11-24T18:09:29.150Z,44.40
2022-11-24T18:11:59.737Z,47.50
2022-11-24T18:14:27.700Z,45.83
2022-11-24T18:16:55.779Z,39.60
2022-11-24T18:19:23.859Z,37.97
2022-11-24T18:21:52.294Z,41.47
2022-11-24T18:24:24.223Z,41.60
2022-11-24T18:26:52.196Z,37.05
2022-11-24T18:31:47.683Z,44.50
2022-11-24T18:34:15.478Z,41.45
2022-11-24T18:36:45.121Z,37.92
2022-11-24T18:39:17.826Z,42.03
2022-11-24T18:41:47.234Z,39.10
2022-11-24T18:44:14.979Z,44.03
2022-11-24T18:49:10.543Z,47.80
2022-11-24T18:51:38.249Z,41.83
2022-11-24T18:56:33.653Z,48.88
2022-11-24T18:59:02.842Z,47.13
2022-11-24T19:01:30.768Z,43.17
2022-11-24T19:03:59.274Z,41.42
2022-11-24T19:06:32.207Z,43.72
2022-11-24T19:09:01.276Z,37.95
2022-11-24T19:11:29.785Z,44.35
2022-11-24T19:13:57.985Z,46.78
2022-11-24T19:16:27.670Z,38.65
2022-11-24T19:18:57.351Z,37.45
2022-11-24T19:21:25.586Z,40.25
2022-11-24T19:23:53.463Z,40.13
2022-11-24T19:26:21.269Z,38.03
2022-11-24T19:28:51.648Z,40.40
2022-11-24T19:31:20.175Z,41.38
2022-11-24T19:33:49.534Z,44.35
2022-11-24T19:36:18.387Z,43.05
2022-11-24T19:38:50.249Z,43.53
2022-11-24T19:41:19.491Z,51.28
2022-11-24T19:43:47.529Z,42.17
2022-11-24T19:46:16.377Z,39.15
2022-11-24T19:48:44.794Z,44.10
2022-11-24T19:51:14.820Z,45.60
2022-11-24T19:53:43.285Z,46.20
2022-11-24T19:56:12.473Z,46.03
2022-11-24T19:58:40.731Z,42.40
2022-11-24T20:01:09.123Z,41.90
2022-11-24T20:03:37.019Z,44.17
2022-11-24T20:06:05.307Z,43.90
2022-11-24T20:08:35.279Z,43.63
2022-11-24T20:11:06.315Z,49.83
2022-11-24T20:13:34.741Z,44.38
2022-11-24T20:16:05.958Z,46.25
2022-11-24T20:18:38.922Z,47.75
2022-11-24T20:21:11.023Z,49.10
2022-11-24T20:23:40.394Z,42.17
2022-11-24T20:26:09.222Z,41.28
2022-11-24T20:28:37.125Z,47.00
2022-11-24T20:31:05.318Z,45.08
2022-11-24T20:33:33.175Z,42.67
2022-11-24T20:36:04.990Z,44.70
2022-11-24T20:38:34.502Z,40.20
2022-11-24T20:41:08.745Z,41.20
2022-11-24T20:43:37.215Z,41.80
2022-11-24T20:46:05.241Z,42.00
2022-11-24T20:48:34.109Z,44.25
2022-11-24T20:51:05.448Z,45.45
2022-11-24T20:53:33.358Z,42.67
2022-11-24T20:56:05.926Z,42.05
2022-11-24T20:58:36.316Z,45.78
2022-11-24T21:01:04.731Z,39.63
2022-11-24T21:03:36.146Z,42.25
2022-11-24T21:06:06.459Z,41.38
2022-11-24T21:08:34.713Z,40.15
2022-11-24T21:11:02.691Z,42.78
2022-11-24T21:13:30.822Z,46.05
2022-11-24T21:15:59.982Z,43.30
2022-11-24T21:18:27.935Z,43.92
2022-11-24T21:20:55.684Z,44.28
2022-11-24T21:25:51.102Z,40.05
2022-11-24T21:30:46.339Z,45.13
2022-11-24T21:33:16.932Z,40.65
2022-11-24T21:35:44.732Z,38.67
2022-11-24T21:40:40.081Z,41.50
2022-11-24T21:43:07.919Z,35.78
2022-11-24T21:48:03.344Z,40.75
2022-11-24T21:50:33.070Z,36.42
2022-11-24T21:53:03.600Z,41.70
2022-11-24T21:55:31.545Z,45.35
2022-11-24T21:57:59.306Z,40.20
2022-11-24T22:02:55.420Z,45.28
2022-11-24T22:05:23.248Z,40.58
2022-11-24T22:07:52.440Z,39.53
2022-11-24T22:10:20.210Z,42.10
2022-11-24T22:15:15.479Z,38.95
2022-11-24T22:17:43.198Z,42.22
2022-11-24T22:22:38.490Z,42.33
2022-11-24T22:27:35.188Z,44.30
2022-11-24T22:30:06.021Z,41.30
2022-11-24T22:32:33.787Z,43.00
2022-11-24T22:35:03.639Z,37.67
2022-11-24T22:37:31.552Z,43.95
2022-11-24T22:39:59.273Z,42.45
2022-11-24T22:44:56.058Z,44.50
2022-11-24T22:47:24.046Z,43.80
2022-11-24T22:49:51.862Z,43.47
2022-11-24T22:54:47.304Z,47.47
2022-11-24T22:57:15.083Z,42.38
2022-11-24T22:59:42.907Z,48.00
2022-11-24T23:02:12.004Z,42.88
2022-11-24T23:04:40.023Z,40.28
2022-11-24T23:07:08.006Z,48.30
2022-11-24T23:09:39.481Z,41.28
2022-11-24T23:12:08.057Z,40.03
2022-11-24T23:14:36.095Z,40.33
2022-11-24T23:17:04.063Z,44.63
2022-11-24T23:19:33.239Z,38.70
2022-11-24T23:22:00.966Z,40.88
2022-11-24T23:26:56.736Z,39.13
2022-11-24T23:31:52.017Z,43.90
2022-11-24T23:34:19.758Z,38.97
2022-11-24T23:39:16.617Z,39.33
2022-11-24T23:41:44.408Z,35.85
2022-11-24T23:46:39.817Z,38.33
2022-11-24T23:51:35.092Z,40.30
2022-11-24T23:54:03.112Z,38.17
2022-11-24T23:56:33.431Z,34.58
2022-11-24T23:59:01.705Z,41.28
